Time;durP1;ratioP1;P1;durP2;ratioP2;P2;SDS_P1;SDS_P2;PMS_P1;PMS_P2;Temp;Humidity;BMP_temperature;BMP_pressure;BME280_temperature;BME280_humidity;BME280_pressure;Samples;Min_cycle;Max_cycle;Signal;HPM_P1;HPM_P2
2023/03/27 00:00:21;;;;;;;;;;;;;;;4.39;100.00;96229.78;5080844;28;19920;-60
2023/03/27 00:02:48;;;;;;;;;;;;;;;4.37;100.00;96217.66;5071651;28;19927;-60
2023/03/27 00:05:15;;;;;;;;;;;;;;;4.28;100.00;96234.13;5060791;28;20514;-59
2023/03/27 00:07:42;;;;;;;;;;;;;;;4.29;100.00;96232.28;5080863;28;19923;-60
2023/03/27 00:10:08;;;;;;;;;;;;;;;4.31;100.00;96234.72;5074459;28;19924;-59
2023/03/27 00:12:35;;;;;;;;;;;;;;;4.33;100.00;96237.97;5059211;28;20292;-60
2023/03/27 00:15:01;;;;;;;;;;;;;;;4.36;100.00;96243.66;5080449;28;19970;-59
2023/03/27 00:17:29;;;;;;;;;;;;;;;4.36;100.00;96253.56;5077513;28;19920;-60
2023/03/27 00:19:56;;;;;;;;;;;;;;;4.32;100.00;96250.56;5079921;28;19920;-59
2023/03/27 00:22:22;;;;;;;;;;;;;;;4.30;100.00;96260.69;5079210;28;20030;-60
2023/03/27 00:24:49;;;;;;;;;;;;;;;4.19;100.00;96270.41;5082152;28;19934;-60
2023/03/27 00:27:16;;;;;;;;;;;;;;;4.13;100.00;96277.53;5080068;28;20552;-59
2023/03/27 00:29:43;;;;;;;;;;;;;;;4.15;100.00;96285.31;5081983;28;20397;-60
2023/03/27 00:32:09;;;;;;;;;;;;;;;4.14;100.00;96292.56;5062437;28;19927;-60
2023/03/27 00:34:36;;;;;;;;;;;;;;;4.04;100.00;96295.03;5063109;28;20755;-60
2023/03/27 00:37:04;;;;;;;;;;;;;;;4.06;100.00;96302.81;5080081;28;19924;-60
2023/03/27 00:39:30;;;;;;;;;;;;;;;4.00;100.00;96313.44;5079287;28;19923;-60
2023/03/27 00:41:57;;;;;;;;;;;;;;;4.09;100.00;96323.78;5078737;28;19978;-60
2023/03/27 00:44:30;;;;;;;;;;;;;;;3.97;100.00;96327.28;5075974;28;19935;-60
2023/03/27 00:46:56;;;;;;;;;;;;;;;3.92;100.00;96321.00;5074396;28;20422;-60
2023/03/27 00:49:26;;;;;;;;;;;;;;;3.95;100.00;96333.94;5075739;28;20035;-60
2023/03/27 00:51:53;;;;;;;;;;;;;;;3.92;100.00;96342.44;5074967;28;20647;-60
2023/03/27 00:54:25;;;;;;;;;;;;;;;3.87;100.00;96340.47;5080198;28;20669;-60
2023/03/27 00:56:54;;;;;;;;;;;;;;;3.80;100.00;96345.97;5043072;28;19920;-59
2023/03/27 00:59:23;;;;;;;;;;;;;;;3.83;100.00;96360.75;5057323;28;19946;-60
2023/03/27 01:01:50;;;;;;;;;;;;;;;3.79;100.00;96362.25;5055985;28;20005;-60
2023/03/27 01:04:20;;;;;;;;;;;;;;;3.82;100.00;96367.13;5042516;28;19927;-60
2023/03/27 01:06:49;;;;;;;;;;;;;;;3.62;100.00;96368.31;5078646;28;19934;-59
2023/03/27 01:09:15;;;;;;;;;;;;;;;3.71;100.00;96382.13;5063753;28;19920;-59
2023/03/27 01:12:00;;;;;;;;;;;;;;;3.59;100.00;96384.81;5060513;28;20419;-59
2023/03/27 01:14:28;;;;;;;;;;;;;;;3.60;100.00;96370.38;5064177;28;19928;-60
2023/03/27 01:17:06;;;;;;;;;;;;;;;3.56;100.00;96386.09;5076819;28;20618;-60
2023/03/27 01:20:04;;;;;;;;;;;;;;;3.47;100.00;96380.25;5075240;28;20298;-60
2023/03/27 01:22:31;;;;;;;;;;;;;;;3.47;100.00;96392.84;5075209;28;20001;-60
2023/03/27 01:25:16;;;;;;;;;;;;;;;3.42;100.00;96392.72;5078396;28;19927;-61
2023/03/27 01:27:51;;;;;;;;;;;;;;;3.37;100.00;96393.41;5053643;28;19920;-60
2023/03/27 01:30:28;;;;;;;;;;;;;;;3.29;100.00;96397.22;5074988;28;20003;-60
2023/03/27 01:33:13;;;;;;;;;;;;;;;3.24;100.00;96418.47;5058558;28;20383;-60
2023/03/27 01:35:54;;;;;;;;;;;;;;;3.32;100.00;96412.81;5074426;28;19920;-60
2023/03/27 01:38:28;;;;;;;;;;;;;;;3.23;100.00;96435.59;5076637;28;20573;-58
2023/03/27 01:41:20;;;;;;;;;;;;;;;3.14;100.00;96437.78;5057593;28;19920;-60
2023/03/27 01:43:58;;;;;;;;;;;;;;;3.24;100.00;96443.38;5079915;28;20418;-60
2023/03/27 01:46:51;;;;;;;;;;;;;;;3.15;100.00;96465.34;5060791;28;19931;-59
2023/03/27 01:49:21;;;;;;;;;;;;;;;2.88;100.00;96458.50;5066100;28;19920;-60
2023/03/27 01:51:54;;;;;;;9.40;4.27;;;;;;;2.78;100.00;96464.38;5055936;28;19924;-60
2023/03/27 01:54:31;;;;;;;11.80;5.10;;;;;;;2.72;100.00;96462.56;5073908;28;20048;-60
2023/03/27 01:57:11;;;;;;;11.77;5.22;;;;;;;2.68;100.00;96464.06;5059679;28;20048;-60
2023/03/27 01:59:43;;;;;;;12.40;5.07;;;;;;;2.52;100.00;96484.19;5059620;28;20090;-59
2023/03/27 02:02:18;;;;;;;12.90;5.90;;;;;;;2.43;100.00;96484.47;5059646;28;20044;-60
2023/03/27 02:05:11;;;;;;;14.98;5.95;;;;;;;2.52;100.00;96492.19;5074599;28;20028;-60
2023/03/27 02:07:46;;;;;;;11.52;5.97;;;;;;;2.61;100.00;96496.22;5051308;28;20044;-60
2023/03/27 02:10:18;;;;;;;10.07;5.00;;;;;;;2.60;100.00;96498.09;5077391;28;20036;-60
2023/03/27 02:12:52;;;;;;;12.98;5.80;;;;;;;2.55;100.00;96503.25;5059654;28;20040;-60
2023/03/27 02:15:23;;;;;;;11.30;5.72;;;;;;;2.59;100.00;96503.66;5071460;28;20085;-60
2023/03/27 02:18:06;;;;;;;14.40;5.90;;;;;;;2.65;100.00;96507.28;5057216;28;20093;-60
2023/03/27 02:20:35;;;;;;;17.63;6.82;;;;;;;2.70;100.00;96526.16;5073342;28;20044;-60
2023/03/27 02:23:05;;;;;;;13.05;6.22;;;;;;;2.51;100.00;96528.00;5056940;28;20060;-60
2023/03/27 02:25:38;;;;;;;10.97;6.23;;;;;;;2.47;100.00;96528.41;5059919;28;20105;-60
2023/03/27 02:28:18;;;;;;;15.05;8.10;;;;;;;2.33;100.00;96534.94;5073763;28;20067;-60
2023/03/27 02:31:05;;;;;;;19.60;8.70;;;;;;;2.31;100.00;96547.69;5077390;28;20035;-60
2023/03/27 02:34:10;;;;;;;19.40;7.85;;;;;;;2.28;100.00;96553.50;5066380;28;20389;-59
2023/03/27 02:36:54;;;;;;;19.65;7.25;;;;;;;2.19;100.00;96559.09;5062281;28;20366;-60
2023/03/27 02:39:44;;;;;;;12.75;5.75;;;;;;;2.17;100.00;96558.47;5077241;28;20071;-59
2023/03/27 02:42:22;;;;;;;20.35;6.20;;;;;;;2.11;100.00;96562.03;5075211;28;20527;-59
2023/03/27 02:45:09;;;;;;;21.45;5.60;;;;;;;2.02;100.00;96574.84;5074213;28;20044;-60
2023/03/27 02:47:41;;;;;;;12.82;4.20;;;;;;;1.88;100.00;96584.78;5059749;28;20077;-60
2023/03/27 02:50:17;;;;;;;10.10;4.60;;;;;;;1.76;100.00;96584.66;5057205;28;20065;-60
2023/03/27 02:52:50;;;;;;;14.20;4.40;;;;;;;1.47;100.00;96594.06;5056160;28;20052;-59
2023/03/27 02:55:27;;;;;;;12.87;3.60;;;;;;;1.44;100.00;96608.66;5052776;28;20123;-60
2023/03/27 02:58:01;;;;;;;11.25;4.07;;;;;;;1.23;100.00;96609.75;5075270;28;20040;-60
2023/03/27 03:00:36;;;;;;;8.40;3.30;;;;;;;1.17;100.00;96625.56;5076845;28;20714;-60
2023/03/27 03:03:26;;;;;;;;;;;;;;;1.25;100.00;96629.03;5057767;28;20292;-60
2023/03/27 03:06:05;;;;;;;10.90;3.28;;;;;;;1.25;100.00;96632.50;5056575;28;19924;-60
2023/03/27 03:08:37;;;;;;;8.60;3.17;;;;;;;1.17;100.00;96633.56;5054833;28;20048;-60
2023/03/27 03:11:09;;;;;;;7.60;2.30;;;;;;;1.26;100.00;96631.47;5057718;28;20085;-60
2023/03/27 03:13:36;;;;;;;10.38;2.50;;;;;;;1.38;100.00;96634.31;5066865;28;20044;-60
2023/03/27 03:16:04;;;;;;;7.32;2.30;;;;;;;1.30;100.00;96621.22;5055856;28;20063;-60
2023/03/27 03:18:32;;;;;;;8.35;2.40;;;;;;;1.24;100.00;96635.38;5056635;28;20039;-60
2023/03/27 03:20:58;;;;;;;6.65;2.22;;;;;;;1.22;100.00;96634.78;5078342;28;20086;-59
2023/03/27 03:23:25;;;;;;;12.43;2.70;;;;;;;1.15;100.00;96637.47;5051721;28;20523;-60
2023/03/27 03:25:55;;;;;;;10.02;3.00;;;;;;;1.08;100.00;96644.66;5055708;28;20036;-60
2023/03/27 03:28:26;;;;;;;10.15;2.50;;;;;;;1.14;100.00;96665.19;5056051;28;20067;-60
2023/03/27 03:30:53;;;;;;;7.63;2.15;;;;;;;1.19;100.00;96664.53;5074402;28;20044;-60
2023/03/27 03:33:20;;;;;;;8.98;2.50;;;;;;;1.14;100.00;96660.66;5057829;28;20036;-60
2023/03/27 03:35:49;;;;;;;12.82;2.25;;;;;;;1.09;100.00;96667.63;5058060;28;20044;-60
2023/03/27 03:38:28;;;;;;;5.80;2.00;;;;;;;1.04;100.00;96670.94;5053522;28;20097;-60
2023/03/27 03:41:05;;;;;;;12.70;2.33;;;;;;;1.09;100.00;96683.63;5057394;28;20173;-59
2023/03/27 03:43:32;;;;;;;10.23;2.40;;;;;;;0.96;100.00;96700.47;5053105;28;20044;-59
2023/03/27 03:46:00;;;;;;;13.18;2.30;;;;;;;0.96;100.00;96695.94;5060076;28;20048;-59
2023/03/27 03:48:27;;;;;;;8.25;2.03;;;;;;;0.96;100.00;96705.81;5058241;28;20090;-59
2023/03/27 03:50:54;;;;;;;10.65;2.63;;;;;;;0.87;100.00;96722.00;5055673;28;20036;-59
2023/03/27 03:53:21;;;;;;;7.90;2.88;;;;;;;0.73;100.00;96736.34;5075405;28;20055;-60
2023/03/27 03:55:50;;;;;;;9.90;2.45;;;;;;;0.62;100.00;96740.44;5074068;28;20052;-59
2023/03/27 03:58:17;;;;;;;5.45;1.92;;;;;;;0.60;100.00;96747.84;5058744;28;20044;-59
2023/03/27 04:00:45;;;;;;;10.40;2.25;;;;;;;0.54;100.00;96752.13;5035386;28;20032;-59
2023/03/27 04:03:33;;;;;;;5.57;1.75;;;;;;;0.51;100.00;96763.19;5050789;28;20044;-60
2023/03/27 04:06:00;;;;;;;11.52;2.05;;;;;;;0.66;100.00;96772.84;5054705;28;20044;-59
2023/03/27 04:08:27;;;;;;;12.82;2.83;;;;;;;0.63;100.00;96779.41;5066126;28;20044;-59
2023/03/27 04:11:10;;;;;;;9.07;1.63;;;;;;;0.64;100.00;96784.53;5059918;28;20044;-59
2023/03/27 04:13:57;;;;;;;6.32;1.75;;;;;;;0.81;100.00;96793.97;5049391;28;20044;-60
2023/03/27 04:16:30;;;;;;;6.72;2.28;;;;;;;0.82;100.00;96801.78;5052007;28;20562;-60
2023/03/27 04:19:04;;;;;;;7.60;2.00;;;;;;;0.88;100.00;96806.28;5063246;28;20036;-60
2023/03/27 04:21:33;;;;;;;7.90;2.65;;;;;;;0.87;100.00;96817.97;5061073;28;20044;-60
2023/03/27 04:24:01;;;;;;;7.35;1.70;;;;;;;0.88;100.00;96824.09;5061926;28;20632;-60
2023/03/27 04:26:42;;;;;;;6.35;1.98;;;;;;;0.88;100.00;96827.59;5064275;28;20082;-59
2023/03/27 04:29:24;;;;;;;6.13;1.25;;;;;;;0.68;100.00;96832.06;5084880;28;20152;-59
2023/03/27 04:31:58;;;;;;;5.07;1.58;;;;;;;0.81;100.00;96833.97;5085521;28;20105;-58
2023/03/27 04:34:40;;;;;;;9.35;1.77;;;;;;;0.73;100.00;96856.28;5081386;28;20152;-59
2023/03/27 04:37:14;;;;;;;8.65;2.55;;;;;;;0.67;100.00;96851.75;5066311;28;20513;-59
2023/03/27 04:39:55;;;;;;;7.70;2.08;;;;;;;0.77;100.00;96865.50;5064178;28;20127;-59
2023/03/27 04:42:22;;;;;;;6.35;1.65;;;;;;;0.64;98.53;96877.78;5085983;28;20116;-60
2023/03/27 04:44:51;;;;;;;7.60;1.58;;;;;;;0.59;100.00;96885.53;5064210;28;20511;-60
2023/03/27 04:47:19;;;;;;;6.07;1.40;;;;;;;0.47;99.66;96897.78;5044248;28;20032;-60
2023/03/27 04:49:49;;;;;;;12.48;1.88;;;;;;;0.46;100.00;96904.16;5061783;28;20501;-60
2023/03/27 04:52:20;;;;;;;5.93;2.15;;;;;;;0.41;98.71;96898.59;5050861;28;20043;-59
2023/03/27 04:54:47;;;;;;;6.72;1.80;;;;;;;0.35;100.00;96894.88;5063591;28;20148;-59
2023/03/27 04:57:17;;;;;;;5.10;1.33;;;;;;;0.16;99.06;96909.75;5064168;28;21451;-59
2023/03/27 04:59:47;;;;;;;9.50;2.58;;;;;;;0.16;98.82;96917.72;5078165;28;20036;-59
2023/03/27 05:02:43;;;;;;;4.75;1.30;;;;;;;0.09;98.72;96923.03;5005768;28;20112;-59
2023/03/27 05:05:20;;;;;;;6.65;1.92;;;;;;;0.12;100.00;96947.41;5081369;28;20098;-59
2023/03/27 05:07:48;;;;;;;8.07;1.50;;;;;;;0.03;100.00;96950.44;5063393;28;20036;-58
2023/03/27 05:10:18;;;;;;;10.60;2.00;;;;;;;0.09;100.00;96955.81;5083776;28;20495;-59
2023/03/27 05:12:50;;;;;;;6.82;1.50;;;;;;;0.15;100.00;96961.34;5046773;28;20052;-59
2023/03/27 05:15:18;;;;;;;5.32;1.77;;;;;;;0.11;97.02;96964.41;5047027;28;20039;-59
2023/03/27 05:17:51;;;;;;;9.30;2.22;;;;;;;-0.11;97.04;96979.59;5060694;28;20110;-59
2023/03/27 05:20:21;;;;;;;8.43;1.60;;;;;;;-0.04;99.43;96985.00;5062463;28;20523;-59
2023/03/27 05:22:48;;;;;;;8.70;2.30;;;;;;;-0.11;98.30;96998.22;5063847;28;20048;-59
2023/03/27 05:25:24;;;;;;;6.35;2.67;;;;;;;-0.01;100.00;96990.75;5079341;28;20134;-60
2023/03/27 05:27:53;;;;;;;6.13;1.65;;;;;;;0.03;99.00;96999.16;5059681;28;20056;-59
2023/03/27 05:30:22;;;;;;;7.53;1.30;;;;;;;-0.09;98.90;96995.38;5055989;28;20407;-59
2023/03/27 05:32:57;;;;;;;5.75;1.40;;;;;;;0.05;98.82;97012.28;5060935;28;20050;-59
2023/03/27 05:35:27;;;;;;;10.30;2.15;;;;;;;0.09;98.05;97014.38;5059433;28;20124;-59
2023/03/27 05:37:56;;;;;;;7.47;1.42;;;;;;;-0.05;99.51;97017.94;5057971;28;20045;-58
2023/03/27 05:40:34;;;;;;;6.03;1.10;;;;;;;-0.04;98.88;97022.25;5061443;28;20036;-59
2023/03/27 05:43:02;;;;;;;7.40;1.48;;;;;;;0.07;97.34;97035.03;5060550;28;20040;-58
2023/03/27 05:45:32;;;;;;;3.90;1.10;;;;;;;0.19;98.34;97048.63;5057544;28;20049;-59
2023/03/27 05:48:01;;;;;;;9.10;1.58;;;;;;;0.12;98.04;97047.78;5078207;28;20032;-60
2023/03/27 05:50:33;;;;;;;6.10;1.43;;;;;;;0.12;99.26;97056.56;5060026;28;20036;-60
2023/03/27 05:53:08;;;;;;;5.80;1.30;;;;;;;-0.02;97.70;97054.81;5059368;28;20085;-60
2023/03/27 05:55:39;;;;;;;6.93;1.35;;;;;;;0.00;98.28;97060.78;5060949;28;20048;-59
2023/03/27 05:58:08;;;;;;;7.68;1.70;;;;;;;-0.07;98.79;97062.56;5080640;28;20044;-58
2023/03/27 06:00:37;;;;;;;9.32;1.58;;;;;;;0.06;99.32;97062.66;5060927;28;20040;-60
2023/03/27 06:03:03;;;;;;;7.47;1.40;;;;;;;0.32;97.41;97060.41;5061246;28;20040;-59
2023/03/27 06:05:49;;;;;;;6.35;2.25;;;;;;;0.30;97.45;97065.94;5059456;28;20067;-59
2023/03/27 06:08:17;;;;;;;10.98;2.13;;;;;;;0.05;98.71;97069.03;5061549;28;20523;-59
2023/03/27 06:10:44;;;;;;;10.65;2.63;;;;;;;0.00;98.65;97079.44;5063241;28;20047;-58
2023/03/27 06:13:22;;;;;;;6.45;1.50;;;;;;;-0.05;100.00;97092.47;5060173;28;20047;-60
2023/03/27 06:15:54;;;;;;;12.48;2.13;;;;;;;-0.02;100.00;97105.41;5063490;28;20044;-59
2023/03/27 06:18:40;;;;;;;9.23;1.50;;;;;;;-0.02;98.10;97102.72;5075223;28;20050;-60
2023/03/27 06:21:09;;;;;;;7.20;2.55;;;;;;;-0.06;97.06;97114.78;5061959;28;20550;-60
2023/03/27 06:23:35;;;;;;;17.80;2.20;;;;;;;-0.03;97.09;97117.06;5063432;28;20036;-59
2023/03/27 06:26:08;;;;;;;4.95;1.60;;;;;;;0.01;98.76;97122.81;5061801;28;20745;-59
2023/03/27 06:28:35;;;;;;;3.22;1.40;;;;;;;-0.03;96.46;97138.38;5059545;28;20045;-59
2023/03/27 06:31:02;;;;;;;11.57;1.70;;;;;;;0.12;96.96;97138.28;5060111;28;20062;-58
2023/03/27 06:33:41;;;;;;;8.38;2.65;;;;;;;0.19;98.68;97135.69;5044062;28;20048;-59
2023/03/27 06:36:18;;;;;;;11.20;2.17;;;;;;;0.17;97.02;97143.88;5057313;28;20130;-59
2023/03/27 06:38:48;;;;;;;5.10;1.30;;;;;;;0.14;98.34;97154.88;5058665;28;20151;-59
2023/03/27 06:41:15;;;;;;;5.82;1.52;;;;;;;0.16;97.31;97155.53;5057849;28;20045;-57
2023/03/27 06:43:56;;;;;;;;;;;;;;;-0.02;99.65;97170.13;5067160;28;20084;-59
2023/03/27 06:46:30;;;;;;;6.43;1.45;;;;;;;0.15;98.47;97174.38;5060957;28;19931;-60
2023/03/27 06:49:17;;;;;;;9.57;1.65;;;;;;;-0.02;96.18;97178.09;5062904;28;20052;-59
2023/03/27 06:51:43;;;;;;;7.63;2.05;;;;;;;-0.02;96.71;97179.94;5060329;28;20400;-60
2023/03/27 06:54:13;;;;;;;6.78;1.45;;;;;;;0.03;97.26;97179.38;5060243;28;20047;-59
2023/03/27 06:56:44;;;;;;;6.25;1.48;;;;;;;0.03;98.15;97185.50;5062235;28;20044;-59
2023/03/27 06:59:14;;;;;;;7.05;1.90;;;;;;;-0.02;96.55;97185.25;5061123;28;20044;-60
2023/03/27 07:01:42;;;;;;;5.82;1.63;;;;;;;-0.07;97.89;97187.66;5061071;28;20056;-60
2023/03/27 07:04:29;;;;;;;7.80;1.95;;;;;;;-0.15;97.43;97196.56;5058243;28;20083;-60
2023/03/27 07:07:12;;;;;;;7.78;1.50;;;;;;;-0.12;98.85;97214.03;5060624;28;20052;-60
2023/03/27 07:09:41;;;;;;;8.00;1.77;;;;;;;-0.17;97.66;97218.06;5061232;28;20040;-59
2023/03/27 07:12:10;;;;;;;10.10;1.42;;;;;;;-0.06;96.94;97226.56;5060457;28;20043;-59
2023/03/27 07:14:38;;;;;;;6.88;1.55;;;;;;;0.12;98.58;97223.50;5062614;28;20086;-60
2023/03/27 07:17:07;;;;;;;10.00;2.17;;;;;;;0.42;98.89;97226.06;5061030;28;20235;-59
2023/03/27 07:20:05;;;;;;;10.63;1.30;;;;;;;0.69;95.21;97226.28;5067577;28;20059;-60
2023/03/27 07:22:32;;;;;;;7.82;1.30;;;;;;;0.93;96.15;97226.91;5059895;28;20053;-60
2023/03/27 07:25:05;;;;;;;5.95;1.50;;;;;;;0.91;91.86;97239.56;5060618;28;20453;-59
2023/03/27 07:27:38;;;;;;;4.25;1.20;;;;;;;0.82;92.02;97236.25;5060786;28;20048;-60
2023/03/27 07:30:07;;;;;;;10.73;1.73;;;;;;;0.86;91.64;97237.50;5061043;28;20090;-59
2023/03/27 07:32:34;;;;;;;10.65;1.98;;;;;;;0.98;90.64;97250.28;5058247;28;20702;-59
2023/03/27 07:35:05;;;;;;;6.65;1.38;;;;;;;0.94;90.63;97247.19;5060341;28;20040;-59
2023/03/27 07:38:03;;;;;;;5.38;1.48;;;;;;;0.54;91.86;97253.00;5080001;28;20059;-61
2023/03/27 07:40:34;;;;;;;11.50;1.70;;;;;;;0.60;92.15;97268.25;5080055;28;20109;-58
2023/03/27 07:43:23;;;;;;;5.07;1.30;;;;;;;0.64;93.21;97272.19;5060672;28;20450;-60
2023/03/27 07:45:50;;;;;;;8.98;1.55;;;;;;;0.59;90.53;97268.44;5057487;28;20492;-59
2023/03/27 07:48:17;;;;;;;5.75;2.20;;;;;;;0.61;92.46;97277.88;5080356;28;20052;-60
2023/03/27 07:50:45;;;;;;;5.40;1.35;;;;;;;0.47;92.09;97279.56;5061670;28;20143;-60
2023/03/27 07:53:14;;;;;;;7.15;1.45;;;;;;;0.52;92.53;97285.16;5059598;28;20430;-60
2023/03/27 07:56:09;;;;;;;4.05;1.30;;;;;;;0.54;90.74;97300.97;5059817;28;20051;-59
2023/03/27 07:58:36;;;;;;;7.10;1.40;;;;;;;0.47;90.88;97302.72;5061987;28;20040;-59
2023/03/27 08:01:03;;;;;;;7.60;1.40;;;;;;;0.55;91.01;97309.78;5083851;28;20618;-57
2023/03/27 08:03:31;;;;;;;8.13;1.38;;;;;;;0.52;90.20;97308.34;5064353;28;20044;-59
2023/03/27 08:05:59;;;;;;;8.35;1.73;;;;;;;0.62;90.68;97319.50;5063222;28;20732;-59
2023/03/27 08:08:29;;;;;;;4.85;1.88;;;;;;;0.74;91.32;97332.31;5065910;28;20527;-59
2023/03/27 08:10:58;;;;;;;5.15;1.60;;;;;;;0.94;88.53;97332.50;5063977;28;20062;-59
2023/03/27 08:13:29;;;;;;;8.70;1.55;;;;;;;1.04;87.46;97337.53;5065186;28;20036;-59
2023/03/27 08:16:12;;;;;;;8.10;1.70;;;;;;;1.28;88.40;97336.28;5064165;28;20557;-57
2023/03/27 08:18:40;;;;;;;6.70;1.77;;;;;;;1.42;83.53;97357.72;5083338;28;20047;-58
2023/03/27 08:21:09;;;;;;;5.53;1.33;;;;;;;1.40;84.41;97354.44;5080674;28;20064;-59
2023/03/27 08:23:37;;;;;;;5.22;1.42;;;;;;;1.51;83.71;97348.56;5062776;28;20040;-59
2023/03/27 08:26:07;;;;;;;5.15;1.35;;;;;;;1.66;83.08;97336.97;5075545;28;20048;-59
2023/03/27 08:28:42;;;;;;;7.38;1.20;;;;;;;1.92;86.83;97344.31;5065035;28;20507;-59
2023/03/27 08:31:12;;;;;;;6.43;1.52;;;;;;;1.80;81.88;97340.53;5047800;28;20119;-58
2023/03/27 08:33:40;;;;;;;5.05;1.20;;;;;;;1.86;81.45;97350.44;5062658;28;20483;-60
2023/03/27 08:36:18;;;;;;;4.22;1.23;;;;;;;1.89;81.40;97349.22;5062890;28;20059;-60
2023/03/27 08:38:45;;;;;;;3.78;1.10;;;;;;;1.98;79.52;97356.03;5065938;28;20040;-59
2023/03/27 08:41:32;;;;;;;6.05;1.40;;;;;;;2.08;78.66;97361.88;5064898;28;20052;-60
2023/03/27 08:44:13;;;;;;;6.53;1.20;;;;;;;2.24;78.55;97375.91;5058025;28;20063;-59
2023/03/27 08:46:46;;;;;;;6.22;1.05;;;;;;;2.21;77.28;97369.09;5065510;28;20048;-60
2023/03/27 08:49:19;;;;;;;6.82;1.58;;;;;;;2.32;77.86;97369.59;5079383;28;20044;-59
2023/03/27 08:52:15;;;;;;;3.85;0.90;;;;;;;2.41;78.25;97380.91;5063812;28;20039;-59
2023/03/27 08:54:57;;;;;;;8.70;2.03;;;;;;;2.46;78.10;97387.31;5062344;28;20040;-59
2023/03/27 08:57:33;;;;;;;7.30;1.50;;;;;;;2.49;76.31;97387.94;5062731;28;20582;-56
2023/03/27 09:00:22;;;;;;;3.42;1.58;;;;;;;2.73;77.52;97405.31;5063447;28;20530;-58
2023/03/27 09:03:03;;;;;;;7.05;1.60;;;;;;;2.86;75.97;97396.50;5062344;28;20075;-59
2023/03/27 09:05:52;;;;;;;7.75;1.50;;;;;;;2.90;73.23;97407.59;5061488;28;20039;-59
2023/03/27 09:08:48;;;;;;;6.78;1.42;;;;;;;2.52;70.43;97403.56;5080519;28;20071;-59
2023/03/27 09:11:30;;;;;;;3.38;0.88;;;;;;;2.69;70.81;97410.22;5055099;28;20040;-58
2023/03/27 09:14:03;;;;;;;8.23;1.73;;;;;;;2.97;71.81;97409.28;5060427;28;20037;-60
2023/03/27 09:16:35;;;;;;;7.77;2.03;;;;;;;2.90;68.90;97412.94;5064433;28;20621;-59
2023/03/27 09:19:17;;;;;;;5.20;1.27;;;;;;;2.58;70.93;97416.97;5080528;28;20040;-59
2023/03/27 09:21:51;;;;;;;3.92;0.88;;;;;;;2.44;71.77;97413.41;5070297;28;20040;-59
2023/03/27 09:24:42;;;;;;;1.60;0.82;;;;;;;2.79;72.31;97425.06;5072568;28;20044;-60
2023/03/27 09:27:35;;;;;;;4.15;1.20;;;;;;;2.94;71.69;97423.06;5051683;28;20150;-60
2023/03/27 09:30:36;;;;;;;4.53;1.30;;;;;;;3.20;68.36;97420.63;5034585;28;20182;-60
2023/03/27 09:33:11;;;;;;;7.25;1.33;;;;;;;3.43;71.17;97440.84;5061521;28;20060;-61
2023/03/27 09:35:41;;;;;;;3.83;1.00;;;;;;;3.29;72.40;97435.50;5061134;28;20135;-61
2023/03/27 09:38:23;;;;;;;3.88;1.30;;;;;;;3.12;68.04;97433.19;5076494;28;20429;-61
2023/03/27 09:41:01;;;;;;;6.35;1.30;;;;;;;3.07;68.63;97429.47;5060932;28;20032;-61
2023/03/27 09:43:48;;;;;;;3.40;1.10;;;;;;;3.26;70.19;97443.91;5063707;28;20036;-60
2023/03/27 09:46:18;;;;;;;7.57;1.48;;;;;;;3.48;65.71;97441.06;5080980;28;20118;-60
2023/03/27 09:49:11;;;;;;;6.07;1.67;;;;;;;3.22;68.24;97453.38;5063673;28;20044;-60
2023/03/27 09:51:42;;;;;;;5.75;1.08;;;;;;;3.47;67.04;97450.13;5055735;28;20036;-60
2023/03/27 09:54:53;;;;;;;6.97;3.70;;;;;;;3.86;67.94;97450.34;5064526;28;20058;-60
2023/03/27 09:57:34;;;;;;;4.97;1.50;;;;;;;3.83;68.09;97456.13;5061483;28;20135;-60
2023/03/27 10:00:12;;;;;;;2.33;1.10;;;;;;;3.78;65.61;97462.09;5063916;28;20052;-59
2023/03/27 10:02:41;;;;;;;6.50;1.33;;;;;;;3.90;66.72;97463.13;5079213;28;20130;-61
2023/03/27 10:05:18;;;;;;;4.28;1.38;;;;;;;3.71;64.94;97464.78;5061558;28;20093;-60
2023/03/27 10:07:50;;;;;;;5.72;1.27;;;;;;;3.80;61.06;97468.09;5060982;28;20068;-59
2023/03/27 10:10:41;;;;;;;5.18;1.25;;;;;;;4.23;65.12;97476.69;5058835;28;20051;-60
2023/03/27 10:13:44;;;;;;;7.00;1.45;;;;;;;4.08;64.46;97475.06;5062905;28;20058;-60
2023/03/27 10:16:16;;;;;;;6.25;1.30;;;;;;;4.17;65.54;97478.38;5062126;28;20526;-58
2023/03/27 10:18:57;;;;;;;3.47;1.63;;;;;;;4.03;62.25;97475.69;5060666;28;20051;-60
2023/03/27 10:21:32;;;;;;;6.18;1.35;;;;;;;3.97;61.66;97487.22;5063425;28;20070;-60
2023/03/27 10:24:17;;;;;;;5.50;1.45;;;;;;;3.68;60.44;97483.13;5056026;28;20048;-60
2023/03/27 10:27:15;;;;;;;6.93;1.15;;;;;;;4.02;60.54;97481.28;5077202;28;20059;-58
2023/03/27 10:30:24;;;;;;;3.20;1.13;;;;;;;4.28;59.30;97484.94;5080883;28;20044;-59
2023/03/27 10:32:53;;;;;;;3.40;0.80;;;;;;;4.01;57.92;97490.31;5060348;28;20044;-59
2023/03/27 10:35:42;;;;;;;2.95;1.08;;;;;;;4.07;58.48;97488.66;5063265;28;20036;-59
2023/03/27 10:38:16;;;;;;;3.13;1.25;;;;;;;4.68;59.81;97478.66;5060839;28;20297;-57
2023/03/27 10:41:04;;;;;;;4.68;1.20;;;;;;;4.69;58.37;97485.69;5080048;28;20036;-58
2023/03/27 10:43:44;;;;;;;8.52;1.73;;;;;;;4.21;60.89;97490.31;5074774;28;20131;-57
2023/03/27 10:46:18;;;;;;;6.25;1.23;;;;;;;4.20;60.46;97496.69;5075359;28;20097;-56
2023/03/27 10:49:03;;;;;;;6.45;1.50;;;;;;;4.47;61.44;97504.72;5063145;28;20052;-59
2023/03/27 10:51:44;;;;;;;4.45;1.13;;;;;;;4.52;56.46;97498.72;5059510;28;20032;-58
2023/03/27 10:54:53;;;;;;;;;;;;;;;4.68;53.29;97489.38;5077162;28;20135;-59
2023/03/27 10:57:22;;;;;;;;;;;;;;;5.02;57.55;97495.44;5059131;28;19924;-58
2023/03/27 10:59:49;;;;;;;;;;;;;;;4.53;57.46;97503.03;5060545;28;19920;-58
2023/03/27 11:02:36;;;;;;;8.55;1.45;;;;;;;4.26;59.16;97511.13;5058562;28;19928;-59
2023/03/27 11:05:11;;;;;;;6.80;1.30;;;;;;;4.53;57.37;97511.06;5061106;28;20041;-59
2023/03/27 11:07:46;;;;;;;;;;;;;;;4.63;56.82;97513.34;5079639;28;20326;-58
2023/03/27 11:10:17;;;;;;;;;;;;;;;4.21;57.71;97516.28;5060854;28;19928;-59
2023/03/27 11:12:52;;;;;;;;;;;;;;;4.56;54.95;97505.31;5062638;28;19934;-58
2023/03/27 11:15:22;;;;;;;;;;;;;;;4.85;55.03;97519.25;5061672;28;20659;-58
2023/03/27 11:18:13;;;;;;;;;;;;;;;4.92;52.39;97521.94;5058915;28;19938;-59
2023/03/27 11:20:55;;;;;;;;;;;;;;;4.94;54.51;97517.19;5063975;28;19920;-58
2023/03/27 11:23:39;;;;;;;;;;;;;;;4.65;54.51;97524.69;5060968;28;19927;-57
2023/03/27 11:26:46;;;;;;;;;;;;;;;4.77;57.82;97520.34;5061242;28;19967;-60
2023/03/27 11:29:34;;;;;;;;;;;;;;;5.05;53.21;97523.75;5061817;28;19920;-58
2023/03/27 11:32:20;;;;;;;;;;;;;;;4.90;54.39;97518.66;5060149;28;19924;-57
2023/03/27 11:34:56;;;;;;;;;;;;;;;5.25;53.23;97531.72;5063903;28;19920;-57
2023/03/27 11:37:44;;;;;;;;;;;;;;;5.04;51.20;97528.28;5062112;28;19924;-58
2023/03/27 11:40:19;;;;;;;;;;;;;;;4.94;51.98;97534.09;5066156;28;19950;-58
2023/03/27 11:42:49;;;;;;;;;;;;;;;5.14;52.61;97533.22;5062618;28;19959;-59
2023/03/27 11:45:19;;;;;;;;;;;;;;;5.05;54.23;97529.91;5065004;28;19979;-58
2023/03/27 11:47:56;;;;;;;;;;;;;;;5.39;50.62;97528.97;5066816;28;20011;-58
2023/03/27 11:50:36;;;;;;;;;;;;;;;5.53;53.39;97527.84;5058236;28;20604;-59
2023/03/27 11:53:21;;;;;;;;;;;;;;;5.54;51.62;97537.56;5082452;28;20485;-58
2023/03/27 11:56:10;;;;;;;;;;;;;;;5.29;52.63;97521.34;5083904;28;20872;-59
2023/03/27 11:58:42;;;;;;;;;;;;;;;5.25;55.85;97523.66;5066493;28;20387;-59
2023/03/27 12:01:17;;;;;;;;;;;;;;;5.46;55.29;97529.75;5058444;28;19987;-58
2023/03/27 12:03:44;;;;;;;;;;;;;;;5.73;54.69;97530.44;5062915;28;19927;-58
2023/03/27 12:06:25;;;;;;;;;;;;;;;6.14;54.22;97542.75;5064690;28;19924;-58
2023/03/27 12:09:04;;;;;;;;;;;;;;;6.09;52.81;97540.75;5062282;28;19924;-60
2023/03/27 12:11:43;;;;;;;;;;;;;;;6.26;51.70;97550.97;5064167;28;19925;-59
2023/03/27 12:14:25;;;;;;;;;;;;;;;6.20;52.88;97547.28;5083966;28;20358;-59
2023/03/27 12:17:10;;;;;;;;;;;;;;;5.70;52.96;97557.72;5062955;28;19927;-60
2023/03/27 12:20:04;;;;;;;;;;;;;;;5.16;57.87;97565.22;5065640;28;20381;-57
2023/03/27 12:22:34;;;;;;;;;;;;;;;5.13;58.44;97553.03;5065144;28;20433;-58
2023/03/27 12:25:04;;;;;;;;;;;;;;;4.99;60.00;97549.56;5062385;28;20026;-59
2023/03/27 12:28:15;;;;;;;;;;;;;;;5.38;58.32;97557.66;5079488;28;19959;-59
2023/03/27 12:31:12;;;;;;;;;;;;;;;5.40;57.70;97549.41;5059185;28;20359;-58
2023/03/27 12:33:47;;;;;;;;;;;;;;;5.59;55.73;97543.09;5060165;28;20016;-59
2023/03/27 12:36:16;;;;;;;;;;;;;;;5.86;58.40;97539.41;5061084;28;20371;-59